KBKL

Burke Lakefront Airport

Cleveland, Ohio, USA
METAR KBKL 201953Z 01011KT 3SM HZ CLR 27/20 A2995 RMK AO2 SLP138 T02670200 $
Observed Flight Rules
Aug-20 @ 19:53 UTC (38 minutes ago) Marginal Visual Flight Rules
Wind Visibility Clouds Conditions
10° at 11 knots 3 miles
  • Clear skies
  • Haze
Temperatures Readings
Current 27°C / 81°F
Dewpoint 20°C / 68°F
Humidity 66%
Altimeter 29.95" Hg
Pressure 1013.8 hPa
Elevation 184
METAR KBKL 201953Z 01011KT 3SM HZ CLR 27/20 A2995 RMK AO2 SLP138 T02670200 $
Observed Flight Rules
Aug-20 @ 19:53 UTC
(38 minutes ago)
MVFR
Wind Visibility
10° at 11 knots 3 miles
Clouds
  • Clear skies
Conditions
  • Haze
Temperature Dewpoint
27°C / 81°F 20°C / 68°F
Humidity Altimeter Pressure
66% 29.95" Hg 1013.8 hPa